sensor_id;sensor_type;location;lat;lon;timestamp;P1;durP1;ratioP1;P2;durP2;ratioP2
80576;SDS011;69937;52.420;10.538;2023-05-07T00:04:31;10.13;;;7.72;;
80576;SDS011;69937;52.420;10.538;2023-05-07T00:09:36;15.98;;;8.43;;
80576;SDS011;69937;52.420;10.538;2023-05-07T00:14:37;12.75;;;7.93;;
80576;SDS011;69937;52.420;10.538;2023-05-07T00:19:37;13.52;;;7.80;;
80576;SDS011;69937;52.420;10.538;2023-05-07T00:24:38;13.93;;;8.68;;
80576;SDS011;69937;52.420;10.538;2023-05-07T00:29:38;14.98;;;9.68;;
80576;SDS011;69937;52.420;10.538;2023-05-07T00:34:40;16.13;;;8.57;;
80576;SDS011;69937;52.420;10.538;2023-05-07T00:39:40;13.35;;;8.65;;
80576;SDS011;69937;52.420;10.538;2023-05-07T00:44:41;14.65;;;8.45;;
80576;SDS011;69937;52.420;10.538;2023-05-07T00:49:42;13.73;;;7.32;;
80576;SDS011;69937;52.420;10.538;2023-05-07T00:54:43;14.63;;;9.98;;
80576;SDS011;69937;52.420;10.538;2023-05-07T00:59:44;12.52;;;7.45;;
80576;SDS011;69937;52.420;10.538;2023-05-07T01:04:45;11.27;;;7.53;;
80576;SDS011;69937;52.420;10.538;2023-05-07T01:09:46;9.65;;;8.10;;
80576;SDS011;69937;52.420;10.538;2023-05-07T01:14:46;8.38;;;5.85;;
80576;SDS011;69937;52.420;10.538;2023-05-07T01:19:48;8.25;;;6.38;;
80576;SDS011;69937;52.420;10.538;2023-05-07T01:24:50;9.43;;;7.88;;
80576;SDS011;69937;52.420;10.538;2023-05-07T01:29:50;8.88;;;5.95;;
80576;SDS011;69937;52.420;10.538;2023-05-07T01:34:51;6.97;;;5.95;;
80576;SDS011;69937;52.420;10.538;2023-05-07T01:39:54;9.18;;;8.10;;
80576;SDS011;69937;52.420;10.538;2023-05-07T01:44:55;9.38;;;6.00;;
80576;SDS011;69937;52.420;10.538;2023-05-07T01:49:56;8.60;;;5.97;;
80576;SDS011;69937;52.420;10.538;2023-05-07T01:54:57;10.90;;;5.85;;
80576;SDS011;69937;52.420;10.538;2023-05-07T01:59:58;7.05;;;5.85;;
80576;SDS011;69937;52.420;10.538;2023-05-07T02:04:59;7.70;;;5.65;;
80576;SDS011;69937;52.420;10.538;2023-05-07T02:10:01;7.25;;;4.68;;
80576;SDS011;69937;52.420;10.538;2023-05-07T02:15:01;9.68;;;6.53;;
80576;SDS011;69937;52.420;10.538;2023-05-07T02:20:02;10.05;;;6.10;;
80576;SDS011;69937;52.420;10.538;2023-05-07T02:25:03;9.57;;;5.88;;
80576;SDS011;69937;52.420;10.538;2023-05-07T02:30:04;10.10;;;6.07;;
80576;SDS011;69937;52.420;10.538;2023-05-07T02:35:06;7.65;;;5.85;;
80576;SDS011;69937;52.420;10.538;2023-05-07T02:40:07;10.77;;;6.55;;
80576;SDS011;69937;52.420;10.538;2023-05-07T02:45:08;9.00;;;6.15;;
80576;SDS011;69937;52.420;10.538;2023-05-07T02:50:09;8.95;;;7.45;;
80576;SDS011;69937;52.420;10.538;2023-05-07T02:55:10;7.88;;;5.78;;
80576;SDS011;69937;52.420;10.538;2023-05-07T03:00:14;8.60;;;5.90;;
80576;SDS011;69937;52.420;10.538;2023-05-07T03:05:16;9.57;;;7.30;;
80576;SDS011;69937;52.420;10.538;2023-05-07T03:10:17;9.38;;;6.45;;
80576;SDS011;69937;52.420;10.538;2023-05-07T03:21:15;9.82;;;6.35;;
80576;SDS011;69937;52.420;10.538;2023-05-07T03:26:22;7.45;;;6.22;;
80576;SDS011;69937;52.420;10.538;2023-05-07T03:31:23;9.13;;;6.40;;
80576;SDS011;69937;52.420;10.538;2023-05-07T03:36:27;8.38;;;6.05;;
80576;SDS011;69937;52.420;10.538;2023-05-07T03:41:28;10.20;;;6.50;;
80576;SDS011;69937;52.420;10.538;2023-05-07T03:46:30;9.25;;;8.25;;
80576;SDS011;69937;52.420;10.538;2023-05-07T03:51:32;9.50;;;6.97;;
80576;SDS011;69937;52.420;10.538;2023-05-07T03:56:33;9.45;;;7.03;;
80576;SDS011;69937;52.420;10.538;2023-05-07T04:01:33;9.80;;;7.32;;
80576;SDS011;69937;52.420;10.538;2023-05-07T04:06:34;8.25;;;6.57;;
80576;SDS011;69937;52.420;10.538;2023-05-07T04:11:35;11.13;;;9.93;;
80576;SDS011;69937;52.420;10.538;2023-05-07T04:16:36;10.98;;;6.75;;
80576;SDS011;69937;52.420;10.538;2023-05-07T04:21:36;10.25;;;7.13;;
80576;SDS011;69937;52.420;10.538;2023-05-07T04:26:37;8.10;;;6.30;;
80576;SDS011;69937;52.420;10.538;2023-05-07T04:31:37;9.15;;;6.80;;
80576;SDS011;69937;52.420;10.538;2023-05-07T04:36:38;12.10;;;6.78;;
80576;SDS011;69937;52.420;10.538;2023-05-07T04:41:38;10.13;;;7.75;;
80576;SDS011;69937;52.420;10.538;2023-05-07T04:46:39;7.85;;;5.72;;
80576;SDS011;69937;52.420;10.538;2023-05-07T04:51:39;9.68;;;8.52;;
80576;SDS011;69937;52.420;10.538;2023-05-07T04:56:42;8.18;;;7.05;;
80576;SDS011;69937;52.420;10.538;2023-05-07T05:01:43;8.77;;;6.82;;
80576;SDS011;69937;52.420;10.538;2023-05-07T05:06:43;7.68;;;6.10;;
80576;SDS011;69937;52.420;10.538;2023-05-07T05:11:44;7.75;;;6.45;;
80576;SDS011;69937;52.420;10.538;2023-05-07T05:16:44;7.95;;;6.78;;
80576;SDS011;69937;52.420;10.538;2023-05-07T05:21:45;9.77;;;7.10;;
80576;SDS011;69937;52.420;10.538;2023-05-07T05:26:46;7.90;;;6.32;;
80576;SDS011;69937;52.420;10.538;2023-05-07T05:31:46;8.75;;;6.82;;
80576;SDS011;69937;52.420;10.538;2023-05-07T05:36:47;9.52;;;8.40;;
80576;SDS011;69937;52.420;10.538;2023-05-07T05:41:47;8.10;;;7.00;;
80576;SDS011;69937;52.420;10.538;2023-05-07T05:46:48;7.63;;;5.85;;
80576;SDS011;69937;52.420;10.538;2023-05-07T05:51:49;10.07;;;7.22;;
80576;SDS011;69937;52.420;10.538;2023-05-07T05:56:50;8.35;;;6.20;;
80576;SDS011;69937;52.420;10.538;2023-05-07T06:01:50;9.80;;;7.10;;
80576;SDS011;69937;52.420;10.538;2023-05-07T06:06:51;9.20;;;6.72;;
80576;SDS011;69937;52.420;10.538;2023-05-07T06:11:51;7.57;;;6.00;;
80576;SDS011;69937;52.420;10.538;2023-05-07T06:16:52;9.48;;;6.53;;
80576;SDS011;69937;52.420;10.538;2023-05-07T06:21:52;9.20;;;6.57;;
80576;SDS011;69937;52.420;10.538;2023-05-07T06:26:53;9.75;;;7.00;;
80576;SDS011;69937;52.420;10.538;2023-05-07T06:31:54;9.40;;;6.63;;
80576;SDS011;69937;52.420;10.538;2023-05-07T06:36:55;8.35;;;6.65;;
80576;SDS011;69937;52.420;10.538;2023-05-07T06:41:56;9.55;;;6.40;;
80576;SDS011;69937;52.420;10.538;2023-05-07T06:46:57;9.80;;;6.38;;
80576;SDS011;69937;52.420;10.538;2023-05-07T06:51:57;10.68;;;6.18;;
80576;SDS011;69937;52.420;10.538;2023-05-07T06:56:58;9.98;;;6.28;;
80576;SDS011;69937;52.420;10.538;2023-05-07T07:01:58;8.80;;;5.60;;
80576;SDS011;69937;52.420;10.538;2023-05-07T07:06:59;9.70;;;7.63;;
80576;SDS011;69937;52.420;10.538;2023-05-07T07:11:59;9.43;;;6.85;;
80576;SDS011;69937;52.420;10.538;2023-05-07T07:17:00;6.63;;;5.30;;
80576;SDS011;69937;52.420;10.538;2023-05-07T07:22:00;8.80;;;6.03;;
80576;SDS011;69937;52.420;10.538;2023-05-07T07:27:01;7.00;;;5.35;;
80576;SDS011;69937;52.420;10.538;2023-05-07T07:32:01;8.25;;;5.90;;
80576;SDS011;69937;52.420;10.538;2023-05-07T07:37:02;11.10;;;6.85;;
80576;SDS011;69937;52.420;10.538;2023-05-07T07:42:05;7.72;;;5.70;;
80576;SDS011;69937;52.420;10.538;2023-05-07T07:47:06;7.80;;;5.82;;
80576;SDS011;69937;52.420;10.538;2023-05-07T07:52:07;8.13;;;5.35;;
80576;SDS011;69937;52.420;10.538;2023-05-07T07:57:07;9.55;;;5.50;;
80576;SDS011;69937;52.420;10.538;2023-05-07T08:02:08;7.35;;;4.43;;
80576;SDS011;69937;52.420;10.538;2023-05-07T08:07:09;6.07;;;4.72;;
80576;SDS011;69937;52.420;10.538;2023-05-07T08:12:10;5.35;;;4.22;;
80576;SDS011;69937;52.420;10.538;2023-05-07T08:17:10;7.63;;;4.95;;
80576;SDS011;69937;52.420;10.538;2023-05-07T08:22:11;6.45;;;5.18;;
80576;SDS011;69937;52.420;10.538;2023-05-07T08:27:12;4.15;;;3.53;;
80576;SDS011;69937;52.420;10.538;2023-05-07T08:32:12;5.95;;;4.15;;
80576;SDS011;69937;52.420;10.538;2023-05-07T08:37:13;7.25;;;5.10;;
80576;SDS011;69937;52.420;10.538;2023-05-07T08:42:13;5.72;;;4.72;;
80576;SDS011;69937;52.420;10.538;2023-05-07T08:47:17;6.25;;;5.03;;
80576;SDS011;69937;52.420;10.538;2023-05-07T08:52:18;4.85;;;4.35;;
80576;SDS011;69937;52.420;10.538;2023-05-07T08:57:19;5.22;;;3.67;;
80576;SDS011;69937;52.420;10.538;2023-05-07T09:02:21;5.18;;;4.43;;
80576;SDS011;69937;52.420;10.538;2023-05-07T09:07:22;7.50;;;6.28;;
80576;SDS011;69937;52.420;10.538;2023-05-07T09:12:22;5.53;;;3.90;;
80576;SDS011;69937;52.420;10.538;2023-05-07T09:17:23;5.60;;;4.88;;
80576;SDS011;69937;52.420;10.538;2023-05-07T09:22:23;5.57;;;4.85;;
80576;SDS011;69937;52.420;10.538;2023-05-07T09:27:24;6.03;;;4.68;;
80576;SDS011;69937;52.420;10.538;2023-05-07T09:32:26;6.43;;;5.00;;
80576;SDS011;69937;52.420;10.538;2023-05-07T09:37:27;8.15;;;5.55;;
80576;SDS011;69937;52.420;10.538;2023-05-07T09:42:27;9.00;;;7.15;;
80576;SDS011;69937;52.420;10.538;2023-05-07T09:47:28;6.43;;;4.85;;
80576;SDS011;69937;52.420;10.538;2023-05-07T09:57:35;7.88;;;5.97;;
80576;SDS011;69937;52.420;10.538;2023-05-07T10:02:36;7.43;;;6.55;;
80576;SDS011;69937;52.420;10.538;2023-05-07T10:07:41;8.30;;;5.13;;
80576;SDS011;69937;52.420;10.538;2023-05-07T10:12:41;6.55;;;5.10;;
80576;SDS011;69937;52.420;10.538;2023-05-07T10:17:42;7.10;;;5.32;;
80576;SDS011;69937;52.420;10.538;2023-05-07T10:22:43;6.85;;;5.30;;
80576;SDS011;69937;52.420;10.538;2023-05-07T10:27:47;8.20;;;5.93;;
80576;SDS011;69937;52.420;10.538;2023-05-07T10:32:50;6.38;;;5.78;;
80576;SDS011;69937;52.420;10.538;2023-05-07T10:37:53;7.32;;;5.30;;
80576;SDS011;69937;52.420;10.538;2023-05-07T10:42:58;8.15;;;5.50;;
80576;SDS011;69937;52.420;10.538;2023-05-07T11:03:28;4.47;;;4.00;;
80576;SDS011;69937;52.420;10.538;2023-05-07T11:13:51;6.40;;;4.88;;
80576;SDS011;69937;52.420;10.538;2023-05-07T11:18:53;6.57;;;5.93;;
80576;SDS011;69937;52.420;10.538;2023-05-07T11:23:54;6.05;;;4.22;;
80576;SDS011;69937;52.420;10.538;2023-05-07T11:28:56;6.50;;;4.22;;
80576;SDS011;69937;52.420;10.538;2023-05-07T11:33:58;6.82;;;4.93;;
80576;SDS011;69937;52.420;10.538;2023-05-07T11:39:00;6.97;;;5.10;;
80576;SDS011;69937;52.420;10.538;2023-05-07T11:44:01;6.72;;;4.55;;
80576;SDS011;69937;52.420;10.538;2023-05-07T11:49:01;7.78;;;5.57;;
80576;SDS011;69937;52.420;10.538;2023-05-07T11:54:05;7.40;;;5.43;;
80576;SDS011;69937;52.420;10.538;2023-05-07T11:59:08;8.57;;;4.72;;
80576;SDS011;69937;52.420;10.538;2023-05-07T12:04:09;8.50;;;6.22;;
80576;SDS011;69937;52.420;10.538;2023-05-07T12:09:09;11.00;;;5.72;;
80576;SDS011;69937;52.420;10.538;2023-05-07T12:14:11;7.20;;;6.10;;
80576;SDS011;69937;52.420;10.538;2023-05-07T12:19:12;7.18;;;4.70;;
80576;SDS011;69937;52.420;10.538;2023-05-07T12:24:14;6.57;;;4.32;;
80576;SDS011;69937;52.420;10.538;2023-05-07T12:29:15;8.00;;;4.95;;
80576;SDS011;69937;52.420;10.538;2023-05-07T12:34:15;9.05;;;3.92;;
80576;SDS011;69937;52.420;10.538;2023-05-07T12:39:16;6.63;;;4.68;;
80576;SDS011;69937;52.420;10.538;2023-05-07T12:44:16;5.22;;;3.72;;
80576;SDS011;69937;52.420;10.538;2023-05-07T12:49:24;5.13;;;3.55;;
80576;SDS011;69937;52.420;10.538;2023-05-07T12:54:37;7.43;;;4.25;;
80576;SDS011;69937;52.420;10.538;2023-05-07T12:59:40;4.78;;;3.10;;
80576;SDS011;69937;52.420;10.538;2023-05-07T13:04:41;8.65;;;3.97;;
80576;SDS011;69937;52.420;10.538;2023-05-07T13:09:42;4.78;;;3.65;;
80576;SDS011;69937;52.420;10.538;2023-05-07T13:14:42;7.47;;;4.38;;
80576;SDS011;69937;52.420;10.538;2023-05-07T13:19:43;4.80;;;3.17;;
80576;SDS011;69937;52.420;10.538;2023-05-07T13:24:43;5.18;;;3.70;;
80576;SDS011;69937;52.420;10.538;2023-05-07T13:29:44;5.35;;;3.95;;
80576;SDS011;69937;52.420;10.538;2023-05-07T13:34:45;5.50;;;3.55;;
80576;SDS011;69937;52.420;10.538;2023-05-07T13:39:45;6.22;;;3.85;;
80576;SDS011;69937;52.420;10.538;2023-05-07T13:44:46;5.50;;;3.85;;
80576;SDS011;69937;52.420;10.538;2023-05-07T13:49:46;6.72;;;3.55;;
80576;SDS011;69937;52.420;10.538;2023-05-07T13:54:49;5.55;;;3.60;;
80576;SDS011;69937;52.420;10.538;2023-05-07T13:59:52;4.43;;;3.35;;
80576;SDS011;69937;52.420;10.538;2023-05-07T14:04:52;4.68;;;3.22;;
80576;SDS011;69937;52.420;10.538;2023-05-07T14:09:53;6.38;;;3.30;;
80576;SDS011;69937;52.420;10.538;2023-05-07T14:14:54;5.55;;;3.45;;
80576;SDS011;69937;52.420;10.538;2023-05-07T14:19:55;4.22;;;3.20;;
80576;SDS011;69937;52.420;10.538;2023-05-07T14:24:55;4.28;;;3.25;;
80576;SDS011;69937;52.420;10.538;2023-05-07T14:29:56;6.55;;;3.22;;
80576;SDS011;69937;52.420;10.538;2023-05-07T14:34:56;5.78;;;3.67;;
80576;SDS011;69937;52.420;10.538;2023-05-07T14:39:57;5.93;;;3.80;;
80576;SDS011;69937;52.420;10.538;2023-05-07T14:44:57;5.43;;;3.63;;
80576;SDS011;69937;52.420;10.538;2023-05-07T14:49:58;6.55;;;4.10;;
80576;SDS011;69937;52.420;10.538;2023-05-07T14:55:00;4.15;;;2.83;;
80576;SDS011;69937;52.420;10.538;2023-05-07T15:00:03;4.78;;;3.13;;
80576;SDS011;69937;52.420;10.538;2023-05-07T15:05:04;4.07;;;2.83;;
80576;SDS011;69937;52.420;10.538;2023-05-07T15:10:05;5.40;;;3.92;;
80576;SDS011;69937;52.420;10.538;2023-05-07T15:15:06;5.63;;;3.35;;
80576;SDS011;69937;52.420;10.538;2023-05-07T15:20:07;5.40;;;3.03;;
80576;SDS011;69937;52.420;10.538;2023-05-07T15:25:08;5.68;;;3.22;;
80576;SDS011;69937;52.420;10.538;2023-05-07T15:30:09;6.38;;;3.58;;
80576;SDS011;69937;52.420;10.538;2023-05-07T15:35:10;6.63;;;3.15;;
80576;SDS011;69937;52.420;10.538;2023-05-07T15:40:11;5.65;;;3.75;;
80576;SDS011;69937;52.420;10.538;2023-05-07T15:45:12;4.13;;;2.95;;
80576;SDS011;69937;52.420;10.538;2023-05-07T15:50:13;4.90;;;3.47;;
80576;SDS011;69937;52.420;10.538;2023-05-07T15:55:13;5.95;;;3.40;;
80576;SDS011;69937;52.420;10.538;2023-05-07T16:00:14;6.43;;;3.63;;
80576;SDS011;69937;52.420;10.538;2023-05-07T16:05:16;5.13;;;3.67;;
80576;SDS011;69937;52.420;10.538;2023-05-07T16:10:17;5.18;;;3.92;;
80576;SDS011;69937;52.420;10.538;2023-05-07T16:15:17;5.95;;;4.15;;
80576;SDS011;69937;52.420;10.538;2023-05-07T16:20:18;4.68;;;4.00;;
80576;SDS011;69937;52.420;10.538;2023-05-07T16:25:20;4.97;;;3.72;;
80576;SDS011;69937;52.420;10.538;2023-05-07T16:30:21;7.47;;;4.65;;
80576;SDS011;69937;52.420;10.538;2023-05-07T16:35:21;5.65;;;4.25;;
80576;SDS011;69937;52.420;10.538;2023-05-07T16:40:22;5.50;;;3.33;;
80576;SDS011;69937;52.420;10.538;2023-05-07T16:45:23;4.93;;;3.53;;
80576;SDS011;69937;52.420;10.538;2023-05-07T16:50:23;5.72;;;3.65;;
80576;SDS011;69937;52.420;10.538;2023-05-07T16:55:24;6.35;;;3.22;;
80576;SDS011;69937;52.420;10.538;2023-05-07T17:00:24;4.70;;;3.08;;
80576;SDS011;69937;52.420;10.538;2023-05-07T17:05:25;4.85;;;3.58;;
80576;SDS011;69937;52.420;10.538;2023-05-07T17:10:26;5.80;;;3.58;;
80576;SDS011;69937;52.420;10.538;2023-05-07T17:15:27;5.20;;;3.30;;
80576;SDS011;69937;52.420;10.538;2023-05-07T17:20:27;6.13;;;3.38;;
80576;SDS011;69937;52.420;10.538;2023-05-07T17:25:30;4.60;;;3.63;;
80576;SDS011;69937;52.420;10.538;2023-05-07T17:30:31;8.75;;;4.15;;
80576;SDS011;69937;52.420;10.538;2023-05-07T17:35:32;4.88;;;3.47;;
80576;SDS011;69937;52.420;10.538;2023-05-07T17:40:32;4.82;;;3.28;;
80576;SDS011;69937;52.420;10.538;2023-05-07T17:45:33;5.40;;;3.40;;
80576;SDS011;69937;52.420;10.538;2023-05-07T17:50:34;6.85;;;4.97;;
80576;SDS011;69937;52.420;10.538;2023-05-07T17:55:39;4.05;;;2.92;;
80576;SDS011;69937;52.420;10.538;2023-05-07T18:00:41;4.60;;;3.33;;
80576;SDS011;69937;52.420;10.538;2023-05-07T18:05:41;3.97;;;3.25;;
80576;SDS011;69937;52.420;10.538;2023-05-07T18:10:42;6.22;;;3.42;;
80576;SDS011;69937;52.420;10.538;2023-05-07T18:15:44;4.72;;;3.38;;
80576;SDS011;69937;52.420;10.538;2023-05-07T18:20:48;5.32;;;3.90;;
80576;SDS011;69937;52.420;10.538;2023-05-07T18:25:50;5.03;;;3.35;;
80576;SDS011;69937;52.420;10.538;2023-05-07T18:30:50;5.25;;;3.42;;
80576;SDS011;69937;52.420;10.538;2023-05-07T18:35:51;5.30;;;3.60;;
80576;SDS011;69937;52.420;10.538;2023-05-07T18:40:51;5.90;;;4.93;;
80576;SDS011;69937;52.420;10.538;2023-05-07T18:45:52;5.68;;;3.45;;
80576;SDS011;69937;52.420;10.538;2023-05-07T18:50:52;5.00;;;3.47;;
80576;SDS011;69937;52.420;10.538;2023-05-07T18:55:53;5.68;;;3.90;;
80576;SDS011;69937;52.420;10.538;2023-05-07T19:00:54;5.05;;;3.42;;
80576;SDS011;69937;52.420;10.538;2023-05-07T19:05:54;5.25;;;4.53;;
80576;SDS011;69937;52.420;10.538;2023-05-07T19:10:55;3.90;;;3.53;;
80576;SDS011;69937;52.420;10.538;2023-05-07T19:15:56;7.28;;;4.57;;
80576;SDS011;69937;52.420;10.538;2023-05-07T19:20:56;7.50;;;3.78;;
80576;SDS011;69937;52.420;10.538;2023-05-07T19:25:57;4.97;;;3.88;;
80576;SDS011;69937;52.420;10.538;2023-05-07T19:30:58;5.28;;;3.88;;
80576;SDS011;69937;52.420;10.538;2023-05-07T19:35:58;5.88;;;3.90;;
80576;SDS011;69937;52.420;10.538;2023-05-07T19:40:59;5.57;;;4.15;;
80576;SDS011;69937;52.420;10.538;2023-05-07T19:45:59;4.20;;;3.80;;
80576;SDS011;69937;52.420;10.538;2023-05-07T19:51:00;6.05;;;5.55;;
80576;SDS011;69937;52.420;10.538;2023-05-07T19:56:01;6.85;;;6.22;;
80576;SDS011;69937;52.420;10.538;2023-05-07T20:01:03;5.15;;;4.00;;
80576;SDS011;69937;52.420;10.538;2023-05-07T20:06:05;5.78;;;4.60;;
80576;SDS011;69937;52.420;10.538;2023-05-07T20:11:05;5.75;;;4.20;;
80576;SDS011;69937;52.420;10.538;2023-05-07T20:16:06;6.32;;;4.72;;
80576;SDS011;69937;52.420;10.538;2023-05-07T20:21:06;4.68;;;4.20;;
80576;SDS011;69937;52.420;10.538;2023-05-07T20:26:07;5.95;;;4.65;;
80576;SDS011;69937;52.420;10.538;2023-05-07T20:31:08;5.65;;;4.90;;
80576;SDS011;69937;52.420;10.538;2023-05-07T20:36:08;5.40;;;4.53;;
80576;SDS011;69937;52.420;10.538;2023-05-07T20:41:09;8.57;;;4.68;;
80576;SDS011;69937;52.420;10.538;2023-05-07T20:46:13;6.38;;;5.47;;
80576;SDS011;69937;52.420;10.538;2023-05-07T20:51:13;5.75;;;4.82;;
80576;SDS011;69937;52.420;10.538;2023-05-07T20:56:15;7.10;;;5.43;;
80576;SDS011;69937;52.420;10.538;2023-05-07T21:01:16;7.10;;;4.57;;
80576;SDS011;69937;52.420;10.538;2023-05-07T21:06:16;6.13;;;5.07;;
80576;SDS011;69937;52.420;10.538;2023-05-07T21:11:31;5.20;;;4.15;;
80576;SDS011;69937;52.420;10.538;2023-05-07T21:16:32;6.72;;;5.53;;
80576;SDS011;69937;52.420;10.538;2023-05-07T21:21:34;5.95;;;5.35;;
80576;SDS011;69937;52.420;10.538;2023-05-07T21:26:35;7.38;;;4.90;;
80576;SDS011;69937;52.420;10.538;2023-05-07T21:31:37;7.25;;;5.80;;
80576;SDS011;69937;52.420;10.538;2023-05-07T21:36:38;8.10;;;7.28;;
80576;SDS011;69937;52.420;10.538;2023-05-07T21:41:38;6.95;;;5.70;;
80576;SDS011;69937;52.420;10.538;2023-05-07T21:46:42;7.90;;;5.20;;
80576;SDS011;69937;52.420;10.538;2023-05-07T21:51:43;6.13;;;5.53;;
80576;SDS011;69937;52.420;10.538;2023-05-07T21:56:45;5.45;;;4.93;;
80576;SDS011;69937;52.420;10.538;2023-05-07T22:01:51;5.93;;;4.57;;
80576;SDS011;69937;52.420;10.538;2023-05-07T22:06:52;6.18;;;5.57;;
80576;SDS011;69937;52.420;10.538;2023-05-07T22:11:56;4.97;;;4.47;;
80576;SDS011;69937;52.420;10.538;2023-05-07T22:18:05;6.15;;;5.38;;
80576;SDS011;69937;52.420;10.538;2023-05-07T22:23:53;7.30;;;5.13;;
80576;SDS011;69937;52.420;10.538;2023-05-07T22:29:12;6.28;;;5.40;;
80576;SDS011;69937;52.420;10.538;2023-05-07T22:47:24;5.50;;;4.95;;
80576;SDS011;69937;52.420;10.538;2023-05-07T22:52:59;5.82;;;5.05;;
80576;SDS011;69937;52.420;10.538;2023-05-07T22:58:50;6.43;;;5.82;;
80576;SDS011;69937;52.420;10.538;2023-05-07T23:04:21;8.77;;;7.85;;
80576;SDS011;69937;52.420;10.538;2023-05-07T23:09:27;6.63;;;5.38;;
80576;SDS011;69937;52.420;10.538;2023-05-07T23:14:34;5.95;;;5.40;;
80576;SDS011;69937;52.420;10.538;2023-05-07T23:19:40;6.78;;;5.82;;
80576;SDS011;69937;52.420;10.538;2023-05-07T23:24:49;10.73;;;9.63;;
80576;SDS011;69937;52.420;10.538;2023-05-07T23:42:43;6.70;;;5.65;;
80576;SDS011;69937;52.420;10.538;2023-05-07T23:48:09;8.05;;;6.20;;
80576;SDS011;69937;52.420;10.538;2023-05-07T23:53:34;7.03;;;6.20;;
80576;SDS011;69937;52.420;10.538;2023-05-07T23:58:47;9.35;;;6.72;;
